Time;durP1;ratioP1;P1;durP2;ratioP2;P2;SDS_P1;SDS_P2;PMS_P1;PMS_P2;Temp;Humidity;BMP_temperature;BMP_pressure;BME280_temperature;BME280_humidity;BME280_pressure;Samples;Min_cycle;Max_cycle;Signal;HPM_P1;HPM_P2
2021/12/04 00:00:24;;;;;;;18.60;9.95;;;;;;;;;;4909066;28;106336;-63
2021/12/04 00:02:54;;;;;;;18.98;10.38;;;;;;;;;;4904911;28;106826;-63
2021/12/04 00:05:21;;;;;;;17.73;9.95;;;;;;;;;;4906617;28;107007;-64
2021/12/04 00:07:48;;;;;;;18.88;9.95;;;;;;;;;;4934855;28;107378;-61
2021/12/04 00:10:18;;;;;;;19.63;10.07;;;;;;;;;;4946426;28;106822;-62
2021/12/04 00:12:45;;;;;;;18.92;10.77;;;;;;;;;;4943013;28;106420;-62
2021/12/04 00:15:11;;;;;;;20.48;11.25;;;;;;;;;;4937871;28;106852;-62
2021/12/04 00:17:38;;;;;;;20.40;11.57;;;;;;;;;;4945212;28;107591;-62
2021/12/04 00:20:05;;;;;;;19.45;10.70;;;;;;;;;;4945247;28;106435;-62
2021/12/04 00:22:32;;;;;;;20.63;11.43;;;;;;;;;;4932379;28;106622;-62
2021/12/04 00:24:58;;;;;;;24.83;11.88;;;;;;;;;;4940280;28;107246;-62
2021/12/04 00:27:25;;;;;;;22.40;11.20;;;;;;;;;;4950600;28;108162;-62
2021/12/04 00:29:51;;;;;;;24.40;12.20;;;;;;;;;;4937577;28;106874;-62
2021/12/04 00:32:39;;;;;;;21.98;11.57;;;;;;;;;;4933007;28;106577;-62
2021/12/04 00:43:14;;;;;;;25.60;12.70;;;;;;;;;;4910318;28;107435;-62
2021/12/04 00:51:36;;;;;;;28.65;13.30;;;;;;;;;;4941289;28;105752;-62
2021/12/04 00:54:05;;;;;;;23.70;12.93;;;;;;;;;;4944558;28;107230;-63
2021/12/04 00:56:32;;;;;;;24.02;13.00;;;;;;;;;;4938865;28;107098;-62
2021/12/04 00:58:58;;;;;;;24.95;12.70;;;;;;;;;;4946259;28;106793;-62
2021/12/04 01:01:25;;;;;;;23.48;12.23;;;;;;;;;;4939747;28;107589;-63
2021/12/04 01:03:51;;;;;;;22.27;11.88;;;;;;;;;;4945602;28;106951;-62
2021/12/04 01:06:18;;;;;;;25.00;12.18;;;;;;;;;;4940937;28;107259;-62
2021/12/04 01:08:44;;;;;;;26.05;12.07;;;;;;;;;;4946223;28;107833;-62
2021/12/04 01:11:10;;;;;;;22.38;11.60;;;;;;;;;;4937719;28;106190;-62
2021/12/04 01:13:37;;;;;;;26.27;11.48;;;;;;;;;;4946846;28;106531;-62
2021/12/04 01:16:03;;;;;;;23.02;11.20;;;;;;;;;;4936616;28;107606;-62
2021/12/04 01:18:30;;;;;;;21.95;11.18;;;;;;;;;;4906592;28;107012;-62
2021/12/04 01:20:57;;;;;;;21.48;11.13;;;;;;;;;;4939799;28;107404;-62
2021/12/04 01:23:24;;;;;;;20.10;10.27;;;;;;;;;;4939973;28;106528;-63
2021/12/04 01:25:50;;;;;;;22.48;10.50;;;;;;;;;;4942643;28;106107;-61
2021/12/04 01:28:17;;;;;;;20.27;9.98;;;;;;;;;;4944971;28;107752;-62
2021/12/04 01:30:43;;;;;;;20.85;9.90;;;;;;;;;;4947580;28;106452;-62
2021/12/04 01:33:10;;;;;;;22.05;10.43;;;;;;;;;;4944243;28;107434;-62
2021/12/04 01:35:36;;;;;;;23.35;11.02;;;;;;;;;;4948493;28;107461;-62
2021/12/04 01:38:02;;;;;;;21.90;11.20;;;;;;;;;;4943972;28;106738;-62
2021/12/04 01:40:29;;;;;;;22.13;11.15;;;;;;;;;;4944604;28;106390;-62
2021/12/04 01:42:55;;;;;;;22.00;11.55;;;;;;;;;;4945653;28;106240;-62
2021/12/04 01:45:22;;;;;;;22.30;11.15;;;;;;;;;;4945934;28;106410;-62
2021/12/04 01:47:48;;;;;;;24.10;11.57;;;;;;;;;;4946266;28;109084;-62
2021/12/04 01:50:14;;;;;;;23.10;11.25;;;;;;;;;;4942487;28;106118;-62
2021/12/04 01:52:41;;;;;;;25.92;11.82;;;;;;;;;;4941578;28;106841;-63
2021/12/04 01:55:08;;;;;;;28.73;12.63;;;;;;;;;;4943363;28;107355;-64
2021/12/04 01:57:35;;;;;;;26.75;12.35;;;;;;;;;;4949630;28;106319;-61
2021/12/04 02:00:03;;;;;;;24.20;12.05;;;;;;;;;;4937620;28;106975;-62
2021/12/04 02:02:38;;;;;;;24.85;12.90;;;;;;;;;;4941624;28;106120;-63
2021/12/04 02:05:06;;;;;;;29.15;13.10;;;;;;;;;;4943197;28;106672;-64
2021/12/04 02:07:32;;;;;;;29.25;13.52;;;;;;;;;;4944552;28;107244;-61
2021/12/04 02:09:59;;;;;;;29.52;13.93;;;;;;;;;;4941114;28;106044;-63
2021/12/04 02:12:25;;;;;;;31.85;13.75;;;;;;;;;;4958567;22;112228;-62
2021/12/04 02:14:51;;;;;;;30.65;14.20;;;;;;;;;;4967163;28;106983;-62
2021/12/04 02:17:18;;;;;;;31.90;13.82;;;;;;;;;;4962410;28;106732;-62
2021/12/04 02:19:45;;;;;;;30.73;14.25;;;;;;;;;;4967367;28;106977;-62
2021/12/04 02:22:11;;;;;;;36.50;14.57;;;;;;;;;;4965946;28;107342;-62
2021/12/04 02:24:38;;;;;;;42.13;15.93;;;;;;;;;;4966309;28;107501;-62
2021/12/04 02:27:04;;;;;;;44.08;16.58;;;;;;;;;;4959392;28;107576;-62
2021/12/04 02:29:31;;;;;;;35.90;14.98;;;;;;;;;;4965441;28;106502;-62
2021/12/04 02:31:58;;;;;;;40.45;16.13;;;;;;;;;;4964466;28;107332;-62
2021/12/04 02:34:26;;;;;;;50.28;17.15;;;;;;;;;;4966468;28;107451;-62
2021/12/04 02:36:53;;;;;;;47.63;16.92;;;;;;;;;;4956370;28;107282;-62
2021/12/04 02:39:24;;;;;;;51.70;17.83;;;;;;;;;;4969088;28;106841;-63
2021/12/04 02:41:51;;;;;;;50.17;17.60;;;;;;;;;;4965103;28;105576;-61
2021/12/04 02:44:18;;;;;;;53.40;17.35;;;;;;;;;;4966098;28;107469;-62
2021/12/04 02:46:44;;;;;;;59.60;17.98;;;;;;;;;;4965282;28;106922;-61
2021/12/04 02:49:12;;;;;;;56.53;17.95;;;;;;;;;;4965141;28;107392;-62
2021/12/04 02:51:39;;;;;;;49.88;18.15;;;;;;;;;;4947033;28;106195;-61
2021/12/04 02:54:06;;;;;;;52.53;17.40;;;;;;;;;;4962962;28;107375;-61
2021/12/04 02:56:33;;;;;;;51.33;17.67;;;;;;;;;;4965166;28;106468;-62
2021/12/04 02:59:02;;;;;;;52.80;18.02;;;;;;;;;;4964660;28;105945;-61
2021/12/04 03:01:29;;;;;;;53.97;17.67;;;;;;;;;;4961973;28;106945;-62
2021/12/04 03:04:08;;;;;;;56.85;19.58;;;;;;;;;;4964412;28;106553;-61
2021/12/04 03:06:42;;;;;;;49.47;17.30;;;;;;;;;;4962575;28;107376;-62
2021/12/04 03:09:08;;;;;;;57.85;19.05;;;;;;;;;;4965018;28;106505;-62
2021/12/04 03:11:35;;;;;;;58.30;17.77;;;;;;;;;;4949117;28;106686;-61
2021/12/04 03:14:02;;;;;;;48.75;18.02;;;;;;;;;;4966813;28;107647;-61
2021/12/04 03:16:28;;;;;;;55.65;18.17;;;;;;;;;;4956923;28;106013;-62
2021/12/04 03:18:55;;;;;;;45.75;17.95;;;;;;;;;;4965143;28;106196;-61
2021/12/04 03:21:22;;;;;;;47.47;17.58;;;;;;;;;;4967999;28;107305;-62
2021/12/04 03:24:09;;;;;;;61.42;19.67;;;;;;;;;;4966835;28;106320;-62
2021/12/04 03:26:37;;;;;;;68.00;18.38;;;;;;;;;;4964052;28;107453;-61
2021/12/04 03:29:08;;;;;;;54.37;17.93;;;;;;;;;;4959999;28;106224;-62
2021/12/04 03:42:20;;;;;;;75.45;19.65;;;;;;;;;;4962475;28;107434;-62
2021/12/04 03:44:47;;;;;;;98.22;21.50;;;;;;;;;;4968645;28;105991;-61
2021/12/04 03:47:13;;;;;;;55.55;18.27;;;;;;;;;;4970212;28;106507;-61
2021/12/04 03:49:39;;;;;;;69.30;19.23;;;;;;;;;;4955871;28;107746;-61
2021/12/04 03:52:07;;;;;;;85.43;20.55;;;;;;;;;;4969038;28;106336;-62
2021/12/04 03:54:33;;;;;;;69.97;19.38;;;;;;;;;;4946889;28;107032;-62
2021/12/04 03:57:04;;;;;;;93.90;21.38;;;;;;;;;;4934972;28;106005;-61
2021/12/04 03:59:30;;;;;;;65.55;19.88;;;;;;;;;;4962872;28;107034;-62
2021/12/04 04:01:57;;;;;;;87.13;20.05;;;;;;;;;;4966319;28;108034;-62
2021/12/04 04:04:23;;;;;;;84.15;20.67;;;;;;;;;;4963679;28;106219;-62
2021/12/04 04:06:50;;;;;;;88.60;21.55;;;;;;;;;;4967395;28;106838;-62
2021/12/04 04:09:16;;;;;;;79.20;19.98;;;;;;;;;;4968743;28;107350;-62
2021/12/04 04:11:43;;;;;;;108.40;19.98;;;;;;;;;;4968514;28;106355;-62
2021/12/04 04:14:09;;;;;;;63.92;20.40;;;;;;;;;;4967666;28;108682;-62
2021/12/04 04:16:39;;;;;;;111.93;22.10;;;;;;;;;;4965284;28;106951;-61
2021/12/04 04:19:05;;;;;;;;;;;;;;;;;;4964359;28;106878;-61
2021/12/04 04:21:32;;;;;;;131.32;20.35;;;;;;;;;;4947939;28;139278;-61
2021/12/04 04:23:58;;;;;;;90.35;20.98;;;;;;;;;;4967396;28;107478;-62
2021/12/04 04:26:25;;;;;;;74.57;20.13;;;;;;;;;;4968527;28;106428;-61
2021/12/04 04:28:51;;;;;;;69.30;19.08;;;;;;;;;;4968320;28;106908;-61
2021/12/04 04:31:17;;;;;;;92.45;21.42;;;;;;;;;;4968755;28;107729;-62
2021/12/04 04:33:45;;;;;;;113.03;22.42;;;;;;;;;;4966974;28;106617;-62
2021/12/04 04:39:15;;;;;;;82.35;20.50;;;;;;;;;;4968134;28;106906;-62
2021/12/04 05:10:17;;;;;;;84.70;21.40;;;;;;;;;;4965225;28;109476;-61
2021/12/04 05:11:58;;;;;;;186.35;26.65;;;;;;;;;;4966201;28;107408;-62
2021/12/04 05:14:25;;;;;;;179.18;23.70;;;;;;;;;;4960649;28;106813;-61
2021/12/04 05:16:59;;;;;;;109.15;22.05;;;;;;;;;;4970091;28;106139;-64
2021/12/04 05:19:38;;;;;;;117.82;22.92;;;;;;;;;;4962024;28;106259;-61
2021/12/04 05:22:05;;;;;;;147.90;24.13;;;;;;;;;;4966556;28;107069;-61
2021/12/04 05:24:32;;;;;;;164.30;23.45;;;;;;;;;;4966506;28;107925;-62
2021/12/04 05:26:58;;;;;;;133.32;22.45;;;;;;;;;;4967413;28;106628;-62
2021/12/04 05:29:25;;;;;;;167.65;24.70;;;;;;;;;;4966138;28;106090;-62
2021/12/04 05:31:51;;;;;;;182.07;24.00;;;;;;;;;;4966688;28;106410;-62
2021/12/04 05:34:17;;;;;;;128.20;24.00;;;;;;;;;;4965473;28;106437;-62
2021/12/04 05:36:44;;;;;;;139.23;24.00;;;;;;;;;;4962652;28;106864;-63
2021/12/04 05:39:10;;;;;;;174.23;23.85;;;;;;;;;;4969142;28;107386;-62
2021/12/04 05:41:37;;;;;;;110.97;21.50;;;;;;;;;;4964681;28;106639;-62
2021/12/04 05:44:07;;;;;;;122.38;22.52;;;;;;;;;;4966793;28;107565;-62
2021/12/04 05:46:38;;;;;;;149.55;23.08;;;;;;;;;;4965905;28;106177;-62
2021/12/04 05:49:53;;;;;;;148.38;21.92;;;;;;;;;;4962618;28;106569;-62
2021/12/04 05:57:00;;;;;;;224.13;26.20;;;;;;;;;;4963265;28;106459;-62
2021/12/04 05:59:26;;;;;;;129.38;22.30;;;;;;;;;;4966617;28;107529;-62
2021/12/04 06:01:53;;;;;;;121.30;21.50;;;;;;;;;;4968165;28;106895;-62
2021/12/04 06:04:19;;;;;;;97.57;21.08;;;;;;;;;;4964862;28;109296;-61
2021/12/04 06:06:46;;;;;;;121.78;22.02;;;;;;;;;;4966358;28;107239;-62
2021/12/04 06:09:12;;;;;;;110.60;22.00;;;;;;;;;;4966355;28;107481;-62
2021/12/04 06:11:38;;;;;;;118.97;22.98;;;;;;;;;;4963329;28;106842;-62
2021/12/04 06:14:05;;;;;;;132.18;22.15;;;;;;;;;;4943922;28;106242;-62
2021/12/04 06:16:32;;;;;;;120.65;22.20;;;;;;;;;;4964961;28;107484;-62
2021/12/04 06:19:05;;;;;;;151.65;24.42;;;;;;;;;;4959087;28;106822;-62
2021/12/04 06:24:16;;;;;;;153.90;22.80;;;;;;;;;;4967557;28;106980;-63
2021/12/04 06:26:43;;;;;;;163.00;23.70;;;;;;;;;;4966527;28;107812;-62
2021/12/04 06:29:09;;;;;;;182.35;25.65;;;;;;;;;;4965460;28;106843;-62
2021/12/04 06:31:35;;;;;;;162.30;24.13;;;;;;;;;;4950565;28;107817;-62
2021/12/04 06:34:02;;;;;;;139.48;23.52;;;;;;;;;;4964746;28;105813;-62
2021/12/04 06:36:29;;;;;;;153.07;22.95;;;;;;;;;;4964119;28;106863;-62
2021/12/04 06:38:55;;;;;;;113.75;22.98;;;;;;;;;;4962187;28;107367;-63
2021/12/04 06:41:21;;;;;;;166.50;24.98;;;;;;;;;;4960137;28;105642;-63
2021/12/04 06:43:50;;;;;;;180.75;23.02;;;;;;;;;;4963353;28;106728;-62
2021/12/04 06:46:18;;;;;;;134.85;23.08;;;;;;;;;;4967701;28;106685;-62
2021/12/04 06:49:32;;;;;;;126.43;22.73;;;;;;;;;;4960836;28;105685;-62
2021/12/04 06:51:39;;;;;;;167.52;21.33;;;;;;;;;;4956181;28;107258;-62
2021/12/04 06:54:10;;;;;;;143.90;22.77;;;;;;;;;;4964109;28;106215;-62
2021/12/04 06:56:41;;;;;;;159.98;23.08;;;;;;;;;;4967102;28;109103;-62
2021/12/04 06:59:10;;;;;;;107.05;21.83;;;;;;;;;;4962564;28;107374;-65
2021/12/04 07:01:37;;;;;;;168.23;23.15;;;;;;;;;;4965356;28;106329;-62
2021/12/04 07:04:04;;;;;;;137.90;23.73;;;;;;;;;;4964627;28;107520;-62
2021/12/04 07:06:31;;;;;;;165.52;22.90;;;;;;;;;;4965479;28;106575;-62
2021/12/04 07:08:58;;;;;;;140.68;22.15;;;;;;;;;;4963096;28;106437;-62
2021/12/04 07:11:25;;;;;;;143.80;22.27;;;;;;;;;;4964332;28;106282;-63
2021/12/04 07:13:51;;;;;;;160.40;23.25;;;;;;;;;;4964998;28;105931;-62
2021/12/04 07:16:23;;;;;;;107.15;21.25;;;;;;;;;;4964489;28;107339;-62
2021/12/04 07:18:50;;;;;;;124.10;22.80;;;;;;;;;;4965416;28;106501;-62
2021/12/04 07:21:17;;;;;;;131.13;22.23;;;;;;;;;;4954563;28;105852;-63
2021/12/04 07:23:43;;;;;;;129.38;22.60;;;;;;;;;;4962012;28;107580;-62
2021/12/04 07:26:09;;;;;;;109.32;21.88;;;;;;;;;;4940076;28;108021;-62
2021/12/04 07:28:36;;;;;;;103.05;20.80;;;;;;;;;;4969182;28;106111;-63
2021/12/04 07:31:03;;;;;;;96.15;21.48;;;;;;;;;;4962741;28;109069;-63
2021/12/04 07:33:29;;;;;;;93.32;20.63;;;;;;;;;;4958966;28;106152;-62
2021/12/04 07:35:59;;;;;;;125.57;21.98;;;;;;;;;;4964979;28;107550;-61
2021/12/04 07:38:26;;;;;;;95.68;21.65;;;;;;;;;;4964315;28;106309;-63
2021/12/04 07:40:53;;;;;;;108.10;22.48;;;;;;;;;;4964046;28;107004;-63
2021/12/04 07:43:19;;;;;;;116.10;21.98;;;;;;;;;;4963869;28;107544;-63
2021/12/04 07:45:46;;;;;;;102.40;21.20;;;;;;;;;;4957753;28;107177;-62
2021/12/04 07:48:12;;;;;;;119.97;21.60;;;;;;;;;;4964435;28;107456;-62
2021/12/04 07:50:39;;;;;;;91.50;20.33;;;;;;;;;;4967267;28;107291;-62
2021/12/04 07:53:05;;;;;;;104.28;22.33;;;;;;;;;;4964150;28;105890;-62
2021/12/04 07:55:32;;;;;;;95.97;21.70;;;;;;;;;;4965199;28;105992;-62
2021/12/04 07:57:59;;;;;;;91.25;20.45;;;;;;;;;;4961201;28;107176;-61
2021/12/04 08:00:27;;;;;;;101.38;21.02;;;;;;;;;;4965381;28;106398;-62
2021/12/04 08:02:53;;;;;;;79.40;19.85;;;;;;;;;;4966248;28;106962;-63
2021/12/04 08:05:20;;;;;;;92.25;20.15;;;;;;;;;;4967322;28;106667;-61
2021/12/04 08:07:46;;;;;;;105.75;21.67;;;;;;;;;;4966330;28;106036;-62
2021/12/04 08:10:15;;;;;;;107.55;21.27;;;;;;;;;;4967307;28;106195;-62
2021/12/04 08:12:42;;;;;;;100.00;21.07;;;;;;;;;;4970102;28;107820;-62
2021/12/04 08:15:09;;;;;;;82.05;20.98;;;;;;;;;;4965289;28;107071;-63
2021/12/04 08:17:37;;;;;;;87.93;20.85;;;;;;;;;;4965892;28;107510;-63
2021/12/04 08:20:05;;;;;;;91.30;20.45;;;;;;;;;;4972323;28;105910;-62
2021/12/04 08:22:33;;;;;;;119.78;21.90;;;;;;;;;;4948260;28;108415;-62
2021/12/04 08:25:00;;;;;;;96.50;22.15;;;;;;;;;;4964729;28;107395;-63
2021/12/04 08:27:26;;;;;;;96.82;19.88;;;;;;;;;;4966912;28;107957;-63
2021/12/04 08:29:53;;;;;;;107.63;24.15;;;;;;;;;;4968396;28;107288;-64
2021/12/04 08:32:23;;;;;;;88.03;21.15;;;;;;;;;;4965548;28;106933;-63
2021/12/04 08:34:50;;;;;;;102.25;20.95;;;;;;;;;;4969891;28;106980;-63
2021/12/04 08:37:17;;;;;;;86.70;22.23;;;;;;;;;;4965978;28;106144;-63
2021/12/04 08:39:43;;;;;;;95.47;21.52;;;;;;;;;;4962398;28;107015;-63
2021/12/04 08:42:09;;;;;;;92.88;21.33;;;;;;;;;;4966127;28;107078;-64
2021/12/04 08:44:37;;;;;;;101.53;22.55;;;;;;;;;;4964949;28;106908;-68
2021/12/04 08:47:04;;;;;;;99.80;21.38;;;;;;;;;;4957984;28;106087;-63
2021/12/04 08:49:32;;;;;;;106.10;23.30;;;;;;;;;;4964196;28;107614;-63
2021/12/04 08:51:58;;;;;;;90.75;22.60;;;;;;;;;;4963850;28;107553;-63
2021/12/04 08:54:25;;;;;;;99.88;23.00;;;;;;;;;;4967266;28;107866;-64
2021/12/04 08:56:51;;;;;;;104.93;24.92;;;;;;;;;;4943272;28;109363;-63
2021/12/04 08:59:18;;;;;;;110.60;24.23;;;;;;;;;;4960047;28;106573;-64
2021/12/04 09:01:45;;;;;;;92.63;23.88;;;;;;;;;;4964060;28;107058;-64
2021/12/04 09:04:14;;;;;;;108.43;23.58;;;;;;;;;;4966232;28;107540;-62
2021/12/04 09:06:41;;;;;;;100.63;22.93;;;;;;;;;;4949711;28;106104;-62
2021/12/04 09:09:09;;;;;;;93.20;21.17;;;;;;;;;;4963809;28;105883;-64
2021/12/04 09:11:38;;;;;;;93.80;23.50;;;;;;;;;;4964757;28;107307;-62
2021/12/04 09:14:05;;;;;;;91.97;23.58;;;;;;;;;;4959789;28;106140;-63
2021/12/04 09:16:31;;;;;;;87.55;21.80;;;;;;;;;;4964833;28;106923;-65
2021/12/04 09:18:58;;;;;;;89.38;22.65;;;;;;;;;;4946733;28;107972;-62
2021/12/04 09:21:24;;;;;;;90.88;21.88;;;;;;;;;;4965269;28;106466;-61
2021/12/04 09:24:01;;;;;;;96.30;22.42;;;;;;;;;;4964324;28;107401;-61
2021/12/04 09:26:38;;;;;;;87.95;22.13;;;;;;;;;;4961038;28;107434;-63
2021/12/04 09:29:22;;;;;;;79.15;21.65;;;;;;;;;;4960186;28;106882;-62
2021/12/04 09:34:54;;;;;;;91.85;20.65;;;;;;;;;;4963230;28;107064;-62
2021/12/04 09:59:08;;;;;;;67.63;18.70;;;;;;;;;;4961291;28;107787;-61
2021/12/04 10:15:45;;;;;;;65.70;19.00;;;;;;;;;;4962436;28;107394;-64
2021/12/04 10:21:09;;;;;;;74.78;18.63;;;;;;;;;;4965408;28;106204;-63
2021/12/04 10:34:33;;;;;;;76.63;18.35;;;;;;;;;;4962232;28;106585;-63
2021/12/04 10:37:10;;;;;;;62.92;18.80;;;;;;;;;;4962143;28;107292;-62
2021/12/04 10:39:37;;;;;;;69.25;17.85;;;;;;;;;;4965993;28;106316;-62
2021/12/04 10:42:07;;;;;;;71.55;18.88;;;;;;;;;;4964596;28;106440;-62
2021/12/04 10:44:37;;;;;;;74.32;17.92;;;;;;;;;;4965512;28;107323;-63
2021/12/04 10:47:11;;;;;;;69.55;18.83;;;;;;;;;;4964143;28;106295;-62
2021/12/04 10:50:08;;;;;;;70.15;19.67;;;;;;;;;;4965768;28;106806;-63
2021/12/04 10:52:30;;;;;;;73.57;18.73;;;;;;;;;;4964523;28;107493;-62
2021/12/04 10:55:11;;;;;;;82.38;19.33;;;;;;;;;;4961407;28;107361;-63
2021/12/04 10:58:01;;;;;;;77.18;20.13;;;;;;;;;;4948117;28;106380;-64
2021/12/04 11:03:36;;;;;;;80.70;20.45;;;;;;;;;;4965675;28;107596;-63
2021/12/04 11:24:18;;;;;;;78.07;18.58;;;;;;;;;;4951817;28;106983;-63
2021/12/04 11:26:19;;;;;;;76.43;19.60;;;;;;;;;;4953848;28;106433;-63
2021/12/04 11:39:53;;;;;;;71.10;18.52;;;;;;;;;;4968671;28;105948;-63
2021/12/04 11:42:27;;;;;;;67.47;18.20;;;;;;;;;;4959760;28;107943;-62
2021/12/04 11:45:09;;;;;;;70.20;18.95;;;;;;;;;;4965374;28;106185;-64
2021/12/04 11:47:37;;;;;;;65.72;18.73;;;;;;;;;;4959326;28;105919;-62
2021/12/04 11:50:17;;;;;;;68.32;18.30;;;;;;;;;;4961236;28;107352;-63
2021/12/04 11:52:45;;;;;;;70.90;18.52;;;;;;;;;;4961948;28;105934;-65
2021/12/04 11:55:13;;;;;;;70.78;18.92;;;;;;;;;;4963414;28;106546;-63
2021/12/04 11:57:39;;;;;;;64.70;17.35;;;;;;;;;;4967515;28;106855;-63
2021/12/04 12:00:08;;;;;;;66.95;18.95;;;;;;;;;;4967912;28;106411;-63
2021/12/04 12:02:37;;;;;;;58.60;18.15;;;;;;;;;;4970297;28;107088;-63
2021/12/04 12:05:04;;;;;;;62.83;18.77;;;;;;;;;;4967265;28;106525;-63
2021/12/04 12:07:31;;;;;;;71.88;21.35;;;;;;;;;;4962353;28;107523;-63
2021/12/04 12:10:16;;;;;;;73.88;20.20;;;;;;;;;;4967118;28;107515;-63
2021/12/04 12:12:43;;;;;;;72.45;21.27;;;;;;;;;;4966648;28;106133;-63
2021/12/04 12:15:17;;;;;;;63.45;18.38;;;;;;;;;;4968125;28;106742;-63
2021/12/04 12:17:44;;;;;;;52.10;16.83;;;;;;;;;;4967442;28;107982;-63
2021/12/04 12:20:17;;;;;;;56.25;17.80;;;;;;;;;;4966542;28;106646;-62
2021/12/04 12:22:51;;;;;;;63.35;18.50;;;;;;;;;;4967863;28;105961;-63
2021/12/04 12:31:48;;;;;;;62.75;18.73;;;;;;;;;;4966275;28;106737;-65
2021/12/04 12:33:36;;;;;;;63.25;18.65;;;;;;;;;;4966378;28;106570;-64
2021/12/04 12:36:13;;;;;;;59.50;18.38;;;;;;;;;;4967981;28;107434;-64
2021/12/04 12:38:42;;;;;;;53.90;19.30;;;;;;;;;;4966144;28;108048;-64
2021/12/04 12:41:11;;;;;;;59.00;18.63;;;;;;;;;;4965897;28;106168;-64
2021/12/04 12:43:37;;;;;;;58.97;19.50;;;;;;;;;;4967295;28;106539;-64
2021/12/04 12:46:04;;;;;;;58.67;18.63;;;;;;;;;;4964801;28;106854;-62
2021/12/04 12:48:40;;;;;;;70.85;20.13;;;;;;;;;;4968777;28;105819;-62
2021/12/04 12:51:07;;;;;;;72.95;21.20;;;;;;;;;;4963672;28;107982;-64
2021/12/04 12:53:39;;;;;;;66.22;20.00;;;;;;;;;;4966904;28;107177;-63
2021/12/04 12:56:08;;;;;;;63.80;19.98;;;;;;;;;;4966622;28;106372;-62
2021/12/04 12:58:42;;;;;;;57.90;20.52;;;;;;;;;;4965526;28;108939;-62
2021/12/04 13:12:42;;;;;;;72.80;25.10;;;;;;;;;;4968246;28;108520;-63
2021/12/04 13:15:10;;;;;;;76.43;23.42;;;;;;;;;;4963154;28;106514;-63
2021/12/04 13:17:38;;;;;;;76.72;25.70;;;;;;;;;;4967780;28;106835;-63
2021/12/04 13:20:05;;;;;;;61.92;20.00;;;;;;;;;;4964884;28;107338;-63
2021/12/04 13:22:31;;;;;;;62.88;20.35;;;;;;;;;;4966185;28;106230;-63
2021/12/04 13:25:07;;;;;;;63.50;20.42;;;;;;;;;;4964511;28;106631;-63
2021/12/04 13:30:02;;;;;;;68.95;22.38;;;;;;;;;;4962121;28;106131;-63
2021/12/04 13:32:32;;;;;;;60.50;19.48;;;;;;;;;;4969639;28;106913;-63
2021/12/04 13:35:05;;;;;;;66.65;20.75;;;;;;;;;;4963163;28;106127;-63
2021/12/04 13:37:31;;;;;;;61.10;20.05;;;;;;;;;;4966158;28;106789;-63
2021/12/04 13:40:00;;;;;;;66.15;22.15;;;;;;;;;;4962338;28;106530;-63
2021/12/04 13:42:27;;;;;;;;;;;;;;;;;;4966632;28;106365;-63
2021/12/04 13:44:57;;;;;;;56.72;18.98;;;;;;;;;;4962446;28;135949;-63
2021/12/04 13:47:25;;;;;;;58.38;19.58;;;;;;;;;;4966314;28;107790;-64
2021/12/04 13:49:57;;;;;;;55.88;20.13;;;;;;;;;;4954948;28;106121;-63
2021/12/04 13:52:26;;;;;;;53.22;18.48;;;;;;;;;;4966177;28;106809;-64
2021/12/04 13:54:55;;;;;;;57.38;19.15;;;;;;;;;;4958648;28;107377;-63
2021/12/04 13:57:22;;;;;;;56.30;19.05;;;;;;;;;;4947129;28;108441;-63
2021/12/04 13:59:48;;;;;;;61.83;19.02;;;;;;;;;;4965313;28;106104;-63
2021/12/04 14:02:22;;;;;;;63.03;20.27;;;;;;;;;;4963999;28;107345;-63
2021/12/04 14:05:04;;;;;;;59.10;19.02;;;;;;;;;;4966751;28;107377;-62
2021/12/04 14:07:31;;;;;;;60.30;19.30;;;;;;;;;;4965802;28;107583;-62
2021/12/04 14:09:58;;;;;;;67.88;19.45;;;;;;;;;;4961783;28;107534;-63
2021/12/04 14:12:29;;;;;;;65.57;18.98;;;;;;;;;;4965733;28;107058;-65
2021/12/04 14:14:55;;;;;;;57.28;17.77;;;;;;;;;;4958586;28;106443;-62
2021/12/04 14:17:21;;;;;;;64.25;17.90;;;;;;;;;;4969571;28;106476;-62
2021/12/04 14:19:48;;;;;;;58.70;18.38;;;;;;;;;;4965709;28;107744;-62
2021/12/04 14:22:16;;;;;;;50.80;16.88;;;;;;;;;;4964765;28;106305;-62
2021/12/04 14:24:52;;;;;;;53.67;18.02;;;;;;;;;;4965211;28;106810;-62
2021/12/04 14:27:22;;;;;;;53.83;17.10;;;;;;;;;;4963215;28;107484;-63
2021/12/04 14:29:51;;;;;;;56.28;17.90;;;;;;;;;;4946773;28;106279;-62
2021/12/04 14:32:22;;;;;;;54.40;16.47;;;;;;;;;;4965263;28;107688;-63
2021/12/04 14:34:53;;;;;;;53.83;16.73;;;;;;;;;;4963636;28;107977;-63
2021/12/04 14:37:20;;;;;;;52.72;16.05;;;;;;;;;;4965535;28;107773;-62
2021/12/04 14:39:48;;;;;;;60.15;17.70;;;;;;;;;;4965549;28;106003;-63
2021/12/04 14:42:25;;;;;;;54.55;17.83;;;;;;;;;;4960898;28;106102;-63
2021/12/04 14:44:53;;;;;;;60.22;17.00;;;;;;;;;;4965784;28;106871;-62
2021/12/04 14:47:21;;;;;;;55.00;16.70;;;;;;;;;;4964819;28;107454;-63
2021/12/04 14:49:48;;;;;;;54.88;17.13;;;;;;;;;;4965804;28;106042;-62
2021/12/04 14:52:23;;;;;;;59.05;18.15;;;;;;;;;;4964712;28;106066;-63
2021/12/04 14:54:51;;;;;;;59.95;19.45;;;;;;;;;;4964929;28;106351;-63
2021/12/04 14:57:20;;;;;;;54.92;16.70;;;;;;;;;;4963359;28;106025;-63
2021/12/04 14:59:47;;;;;;;65.20;18.43;;;;;;;;;;4960917;28;106963;-63
2021/12/04 15:02:17;;;;;;;58.05;16.35;;;;;;;;;;4968161;28;107444;-63
2021/12/04 15:04:44;;;;;;;49.25;16.60;;;;;;;;;;4950171;28;106789;-63
2021/12/04 15:07:19;;;;;;;42.70;15.90;;;;;;;;;;4958001;28;107355;-62
2021/12/04 15:09:45;;;;;;;45.13;17.42;;;;;;;;;;4966084;28;106230;-63
2021/12/04 15:12:11;;;;;;;49.95;18.02;;;;;;;;;;4967604;28;107051;-64
2021/12/04 15:14:38;;;;;;;38.00;14.88;;;;;;;;;;4967372;28;107774;-64
2021/12/04 15:17:11;;;;;;;34.63;13.32;;;;;;;;;;4951437;28;107490;-62
2021/12/04 15:19:47;;;;;;;36.83;13.40;;;;;;;;;;4966523;28;107542;-62
2021/12/04 15:22:19;;;;;;;36.25;13.80;;;;;;;;;;4963049;28;107087;-62
2021/12/04 15:24:45;;;;;;;27.08;10.40;;;;;;;;;;4968989;28;105958;-62
2021/12/04 15:27:15;;;;;;;26.60;9.18;;;;;;;;;;4968272;28;107375;-63
2021/12/04 15:29:44;;;;;;;26.58;8.88;;;;;;;;;;4967483;28;105750;-64
2021/12/04 15:32:13;;;;;;;20.00;7.43;;;;;;;;;;4958517;28;106911;-64
2021/12/04 15:34:50;;;;;;;20.80;7.32;;;;;;;;;;4950882;28;109084;-62
2021/12/04 15:37:27;;;;;;;18.05;6.72;;;;;;;;;;4966774;28;106269;-62
2021/12/04 15:39:54;;;;;;;21.33;6.78;;;;;;;;;;4967548;28;106024;-66
2021/12/04 15:42:30;;;;;;;15.50;6.18;;;;;;;;;;4952901;28;106475;-63
2021/12/04 15:48:26;;;;;;;16.90;5.38;;;;;;;;;;4886889;28;106646;-63
2021/12/04 15:51:26;;;;;;;16.52;5.68;;;;;;;;;;4874681;28;107161;-62
2021/12/04 15:53:56;;;;;;;16.95;6.50;;;;;;;;;;4953055;28;106781;-63
2021/12/04 15:56:31;;;;;;;19.05;6.50;;;;;;;;;;4954974;28;107020;-64
2021/12/04 15:58:58;;;;;;;20.02;6.60;;;;;;;;;;4967456;28;106117;-65
2021/12/04 16:01:28;;;;;;;20.85;6.07;;;;;;;;;;4967737;28;106763;-63
2021/12/04 16:03:55;;;;;;;23.65;6.88;;;;;;;;;;4949479;28;106591;-64
2021/12/04 16:06:22;;;;;;;22.40;6.85;;;;;;;;;;4967792;28;105726;-63
2021/12/04 16:08:48;;;;;;;23.38;7.07;;;;;;;;;;4966308;28;106867;-63
2021/12/04 16:11:15;;;;;;;27.88;7.10;;;;;;;;;;4964685;28;106393;-63
2021/12/04 16:13:48;;;;;;;21.73;7.03;;;;;;;;;;4963632;28;107295;-69
2021/12/04 16:16:24;;;;;;;26.83;7.25;;;;;;;;;;4960989;28;107002;-62
2021/12/04 16:18:54;;;;;;;27.00;7.40;;;;;;;;;;4965390;28;106694;-64
2021/12/04 16:21:20;;;;;;;29.58;7.07;;;;;;;;;;4967412;28;106298;-62
2021/12/04 16:23:48;;;;;;;30.60;6.82;;;;;;;;;;4965441;28;107103;-66
2021/12/04 16:26:17;;;;;;;31.75;8.68;;;;;;;;;;4962255;28;106729;-63
2021/12/04 16:29:03;;;;;;;27.80;7.18;;;;;;;;;;4959593;28;106918;-63
2021/12/04 16:31:38;;;;;;;33.88;8.95;;;;;;;;;;4967243;28;108413;-62
2021/12/04 16:35:06;;;;;;;25.40;8.07;;;;;;;;;;4958683;28;109038;-62
2021/12/04 16:39:42;;;;;;;34.22;8.27;;;;;;;;;;4942119;28;106868;-64
2021/12/04 16:42:10;;;;;;;35.25;8.82;;;;;;;;;;4961951;28;108245;-65
2021/12/04 16:44:38;;;;;;;35.33;8.93;;;;;;;;;;4960155;28;107367;-62
2021/12/04 16:47:05;;;;;;;34.00;10.13;;;;;;;;;;4959396;28;107439;-63
2021/12/04 16:49:32;;;;;;;32.70;9.75;;;;;;;;;;4966174;28;107561;-65
2021/12/04 16:55:18;;;;;;;35.03;8.88;;;;;;;;;;4963887;28;106446;-63
2021/12/04 17:00:11;;;;;;;22.38;8.05;;;;;;;;;;4962293;28;107351;-63
2021/12/04 17:02:38;;;;;;;23.38;7.38;;;;;;;;;;4959768;28;108206;-64
2021/12/04 17:05:05;;;;;;;33.28;8.55;;;;;;;;;;4964920;28;106178;-64
2021/12/04 17:07:32;;;;;;;26.83;8.07;;;;;;;;;;4964750;28;106214;-64
2021/12/04 17:09:59;;;;;;;26.90;7.57;;;;;;;;;;4965055;28;106770;-64
2021/12/04 17:12:25;;;;;;;30.38;8.02;;;;;;;;;;4959719;28;108312;-63